Time;durP1;ratioP1;P1;durP2;ratioP2;P2;SDS_P1;SDS_P2;PMS_P1;PMS_P2;Temp;Humidity;BMP_temperature;BMP_pressure;BME280_temperature;BME280_humidity;BME280_pressure;Samples;Min_cycle;Max_cycle;Signal;HPM_P1;HPM_P2
2022/09/14 00:01:40;;;;;;;4.85;3.20;;;;;;;16.40;84.89;97787.09;4234749;27;20122;-74
2022/09/14 00:03:40;;;;;;;5.25;3.30;;;;;;;16.36;85.63;97786.38;4237809;27;20046;-74
2022/09/14 00:05:41;;;;;;;6.07;3.75;;;;;;;16.37;86.61;97785.16;4236870;27;20382;-74
2022/09/14 00:07:41;;;;;;;5.97;3.30;;;;;;;16.37;86.71;97794.31;4236096;27;20600;-74
2022/09/14 00:09:42;;;;;;;7.15;4.05;;;;;;;16.36;87.56;97800.34;4235390;27;20043;-74
2022/09/14 00:11:43;;;;;;;4.13;3.20;;;;;;;16.36;87.20;97791.97;4236217;27;20116;-74
2022/09/14 00:13:46;;;;;;;5.50;4.07;;;;;;;16.36;86.65;97794.75;4235669;27;20130;-73
2022/09/14 00:15:46;;;;;;;3.72;3.08;;;;;;;16.34;86.23;97789.59;4235704;27;20298;-74
2022/09/14 00:17:46;;;;;;;5.72;3.65;;;;;;;16.39;86.11;97788.31;4235788;27;20047;-74
2022/09/14 00:19:47;;;;;;;5.38;3.15;;;;;;;16.37;86.82;97771.97;4238104;27;20112;-74
2022/09/14 00:21:53;;;;;;;4.10;3.28;;;;;;;16.36;86.74;97761.25;4239527;27;20423;-73
2022/09/14 00:23:53;;;;;;;5.05;3.97;;;;;;;16.35;91.86;97776.44;4239008;27;20046;-73
2022/09/14 00:25:54;;;;;;;7.63;4.15;;;;;;;16.27;91.39;97770.22;4239370;27;20388;-74
2022/09/14 00:27:56;;;;;;;4.78;4.00;;;;;;;16.25;90.77;97778.25;4239191;27;20142;-74
2022/09/14 00:29:56;;;;;;;5.82;4.40;;;;;;;16.21;91.96;97780.31;4238476;27;20062;-74
2022/09/14 00:31:57;;;;;;;4.47;3.47;;;;;;;16.14;92.57;97770.13;4239250;27;20486;-74
2022/09/14 00:33:57;;;;;;;6.47;4.97;;;;;;;16.16;91.91;97772.47;4238955;27;20410;-74
2022/09/14 00:36:08;;;;;;;7.65;4.20;;;;;;;16.14;91.27;97763.75;4239308;27;20047;-73
2022/09/14 00:38:08;;;;;;;4.20;3.60;;;;;;;16.15;91.27;97757.75;4238622;27;20104;-73
2022/09/14 00:40:11;;;;;;;4.15;3.65;;;;;;;16.17;91.43;97751.72;4238964;27;20031;-74
2022/09/14 00:42:15;;;;;;;5.57;3.83;;;;;;;16.10;95.37;97774.97;4238787;27;20086;-73
2022/09/14 00:44:15;;;;;;;5.72;3.95;;;;;;;16.07;95.76;97763.91;4238270;27;20246;-74
2022/09/14 00:46:16;;;;;;;4.78;3.72;;;;;;;16.05;95.34;97766.31;4238289;27;20366;-73
2022/09/14 00:48:16;;;;;;;4.40;3.40;;;;;;;16.05;92.76;97767.09;4239904;27;20038;-74
2022/09/14 00:50:17;;;;;;;4.47;4.03;;;;;;;16.09;93.01;97765.03;4238363;27;20035;-74
2022/09/14 00:52:18;;;;;;;7.50;3.40;;;;;;;16.14;91.80;97752.59;4238686;27;20050;-74
2022/09/14 00:54:19;;;;;;;7.00;3.80;;;;;;;16.17;92.33;97746.91;4238598;27;20118;-74
2022/09/14 00:56:19;;;;;;;4.35;3.88;;;;;;;16.16;93.07;97752.94;4238670;27;20038;-73
2022/09/14 00:58:20;;;;;;;5.18;3.80;;;;;;;16.12;93.78;97739.06;4236536;27;20023;-74
2022/09/14 01:00:24;;;;;;;6.68;3.80;;;;;;;16.11;93.34;97748.66;4238486;27;20038;-74
2022/09/14 01:02:26;;;;;;;4.28;3.47;;;;;;;16.11;92.67;97740.28;4239218;27;20655;-74
2022/09/14 01:04:27;;;;;;;5.40;4.30;;;;;;;16.11;92.72;97729.09;4237984;27;20497;-74
2022/09/14 01:06:40;;;;;;;5.15;3.83;;;;;;;16.11;93.36;97734.69;4238604;27;20039;-74
2022/09/14 01:08:47;;;;;;;4.63;3.40;;;;;;;16.13;93.57;97737.03;4238710;27;20039;-74
2022/09/14 01:11:03;;;;;;;6.60;4.43;;;;;;;16.15;95.43;97737.41;4237735;27;20130;-74
2022/09/14 01:13:12;;;;;;;6.35;3.90;;;;;;;16.13;95.47;97739.84;4238484;27;20062;-74
2022/09/14 01:15:43;;;;;;;8.32;3.90;;;;;;;16.01;96.78;97739.28;4238724;27;20071;-74
2022/09/14 01:17:50;;;;;;;5.85;4.10;;;;;;;15.97;98.39;97744.19;4238288;27;20098;-74
2022/09/14 01:19:53;;;;;;;6.00;4.10;;;;;;;15.90;99.01;97746.34;4238043;27;20166;-74
2022/09/14 01:21:57;;;;;;;5.82;4.13;;;;;;;15.84;100.00;97736.91;4237375;27;20134;-73
2022/09/14 01:24:11;;;;;;;5.82;4.18;;;;;;;15.81;100.00;97735.75;4238208;27;20047;-73
2022/09/14 01:26:31;;;;;;;6.30;4.20;;;;;;;15.78;100.00;97731.03;4238111;27;20129;-73
2022/09/14 01:28:42;;;;;;;8.02;4.30;;;;;;;15.77;100.00;97723.88;4237661;27;20035;-73
2022/09/14 01:30:44;;;;;;;6.20;4.30;;;;;;;15.78;99.62;97719.88;4237142;27;20039;-73
2022/09/14 01:32:49;;;;;;;5.82;3.80;;;;;;;15.80;98.73;97703.47;4236331;27;20043;-73
2022/09/14 01:34:59;;;;;;;6.80;3.65;;;;;;;15.85;96.92;97702.19;4238191;27;20100;-73
2022/09/14 01:37:11;;;;;;;4.88;3.70;;;;;;;15.87;97.39;97700.53;4237510;27;20047;-73
2022/09/14 01:39:14;;;;;;;5.72;4.07;;;;;;;15.89;96.85;97702.94;4237965;27;20073;-73
2022/09/14 01:41:19;;;;;;;4.65;3.78;;;;;;;15.89;98.27;97712.09;4237932;27;20446;-73
2022/09/14 01:43:25;;;;;;;6.82;4.15;;;;;;;15.86;98.81;97707.34;4237755;27;20077;-73
2022/09/14 01:45:29;;;;;;;5.03;4.03;;;;;;;15.82;99.43;97714.25;4237487;27;20368;-73
2022/09/14 01:47:36;;;;;;;5.97;3.97;;;;;;;15.77;99.15;97706.38;4237854;27;20043;-73
2022/09/14 01:49:51;;;;;;;5.63;3.83;;;;;;;15.79;99.17;97713.06;4237452;27;20211;-73
2022/09/14 01:52:01;;;;;;;5.38;4.18;;;;;;;15.78;99.06;97714.28;4237743;27;20039;-73
2022/09/14 01:54:22;;;;;;;7.03;4.10;;;;;;;15.74;99.89;97721.97;4237566;27;20051;-73
2022/09/14 01:56:32;;;;;;;6.50;3.97;;;;;;;15.77;98.56;97721.09;4237329;27;20046;-73
2022/09/14 01:58:45;;;;;;;6.80;4.18;;;;;;;15.77;98.75;97717.53;4237165;27;20369;-73
2022/09/14 02:00:49;;;;;;;5.88;4.32;;;;;;;15.82;99.29;97719.81;4238164;27;20200;-73
2022/09/14 02:02:57;;;;;;;5.40;3.42;;;;;;;15.83;100.00;97724.16;4237586;27;20646;-73
2022/09/14 02:05:13;;;;;;;5.35;4.35;;;;;;;15.84;99.29;97711.78;4238029;27;20039;-73
2022/09/14 02:07:14;;;;;;;7.70;4.35;;;;;;;15.83;99.53;97707.44;4237764;27;20130;-73
2022/09/14 02:09:20;;;;;;;5.82;4.40;;;;;;;15.77;100.00;97695.22;4236968;27;20047;-73
2022/09/14 02:11:20;;;;;;;5.78;4.60;;;;;;;15.71;100.00;97703.28;4237519;27;20047;-73
2022/09/14 02:13:20;;;;;;;7.50;4.60;;;;;;;15.64;100.00;97704.25;4237373;27;20099;-73
2022/09/14 02:15:23;;;;;;;6.40;4.28;;;;;;;15.59;100.00;97703.94;4234947;27;20289;-73
2022/09/14 02:17:24;;;;;;;9.95;4.90;;;;;;;15.58;100.00;97697.56;4237208;27;20360;-73
2022/09/14 02:19:30;;;;;;;5.40;4.50;;;;;;;15.57;100.00;97701.56;4237862;27;20046;-73
2022/09/14 02:21:32;;;;;;;6.50;4.97;;;;;;;15.56;100.00;97699.22;4237578;27;20063;-73
2022/09/14 02:23:34;;;;;;;9.13;4.25;;;;;;;15.53;100.00;97698.06;4237083;27;20047;-73
2022/09/14 02:25:35;;;;;;;;;;;;;;;15.53;100.00;97700.06;4237061;27;20058;-73
2022/09/14 02:27:35;;;;;;;6.43;4.60;;;;;;;15.51;100.00;97696.94;4238056;27;20090;-73
2022/09/14 02:29:36;;;;;;;6.20;4.53;;;;;;;15.51;100.00;97697.72;4236998;27;20548;-73
2022/09/14 02:32:01;;;;;;;7.95;4.68;;;;;;;15.53;100.00;97703.63;4238319;27;20053;-73
2022/09/14 02:34:12;;;;;;;8.07;5.00;;;;;;;15.58;100.00;97699.56;4236868;27;20419;-73
2022/09/14 02:36:57;;;;;;;5.72;4.72;;;;;;;15.61;100.00;97698.72;4236214;27;20439;-73
2022/09/14 02:39:10;;;;;;;7.22;5.00;;;;;;;15.61;100.00;97690.38;4211445;27;20246;-73
2022/09/14 02:41:38;;;;;;;6.50;5.07;;;;;;;15.60;100.00;97697.13;4236306;27;20265;-73
2022/09/14 02:43:47;;;;;;;6.90;5.00;;;;;;;15.57;100.00;97693.22;4234271;27;20054;-73
2022/09/14 02:46:12;;;;;;;5.68;4.82;;;;;;;15.54;100.00;97685.69;4234992;27;20055;-73
2022/09/14 02:48:18;;;;;;;7.93;5.10;;;;;;;15.54;100.00;97682.13;4234964;27;20070;-73
2022/09/14 02:50:34;;;;;;;6.80;4.57;;;;;;;15.56;100.00;97676.91;4236038;27;20027;-73
2022/09/14 02:52:52;;;;;;;5.78;4.35;;;;;;;15.57;100.00;97672.91;4235785;27;20039;-73
2022/09/14 02:55:01;;;;;;;6.30;4.30;;;;;;;15.55;100.00;97661.38;4236808;27;20113;-73
2022/09/14 02:57:02;;;;;;;5.80;4.80;;;;;;;15.58;100.00;97661.31;4237358;27;20454;-73
2022/09/14 02:59:03;;;;;;;7.93;5.55;;;;;;;15.61;100.00;97660.47;4236413;27;20418;-73
2022/09/14 03:01:05;;;;;;;7.40;4.90;;;;;;;15.62;100.00;97666.84;4237181;27;20040;-72
2022/09/14 03:03:08;;;;;;;6.88;5.05;;;;;;;15.63;100.00;97657.25;4237121;27;20367;-72
2022/09/14 03:05:08;;;;;;;6.72;5.43;;;;;;;15.63;100.00;97663.63;4236722;27;20232;-72
2022/09/14 03:07:09;;;;;;;7.38;4.90;;;;;;;15.57;100.00;97665.31;4236922;27;20070;-73
2022/09/14 03:09:09;;;;;;;7.20;5.32;;;;;;;15.54;100.00;97657.81;4236106;27;20066;-72
2022/09/14 03:11:09;;;;;;;7.85;4.95;;;;;;;15.49;100.00;97658.34;4236358;27;20043;-72
2022/09/14 03:13:10;;;;;;;7.88;5.00;;;;;;;15.46;100.00;97656.38;4236688;27;20133;-72
2022/09/14 03:15:10;;;;;;;8.35;4.93;;;;;;;15.46;100.00;97657.16;4236759;27;20150;-72
2022/09/14 03:17:11;;;;;;;7.30;4.80;;;;;;;15.45;100.00;97647.25;4236615;27;20051;-72
2022/09/14 03:19:11;;;;;;;7.82;5.65;;;;;;;15.40;100.00;97649.78;4235797;27;20054;-73
2022/09/14 03:21:14;;;;;;;9.38;4.65;;;;;;;15.43;100.00;97654.47;4236699;27;20310;-72
2022/09/14 03:23:14;;;;;;;7.95;5.10;;;;;;;15.44;100.00;97645.69;4236098;27;20114;-73
2022/09/14 03:25:15;;;;;;;8.05;5.40;;;;;;;15.43;100.00;97643.31;4236426;27;20054;-72
2022/09/14 03:27:16;;;;;;;8.25;5.10;;;;;;;15.41;100.00;97640.97;4236111;27;20488;-72
2022/09/14 03:29:16;;;;;;;6.82;5.25;;;;;;;15.41;100.00;97640.19;4235996;27;20103;-72
2022/09/14 03:31:17;;;;;;;6.75;5.72;;;;;;;15.38;100.00;97641.81;4236498;27;20074;-72
2022/09/14 03:33:17;;;;;;;6.10;4.75;;;;;;;15.39;100.00;97634.25;4236428;27;20356;-72
2022/09/14 03:35:18;;;;;;;6.80;5.18;;;;;;;15.47;100.00;97635.66;4236650;27;20050;-72
2022/09/14 03:37:18;;;;;;;6.82;4.88;;;;;;;15.53;100.00;97628.38;4236027;27;20051;-72
2022/09/14 03:39:19;;;;;;;6.25;4.80;;;;;;;15.53;100.00;97627.59;4235754;27;20825;-72
2022/09/14 03:41:21;;;;;;;6.57;5.47;;;;;;;15.55;100.00;97636.28;4235018;27;20050;-72
2022/09/14 03:43:21;;;;;;;7.80;5.22;;;;;;;15.54;100.00;97623.56;4238330;27;20051;-72
2022/09/14 03:45:21;;;;;;;7.47;5.32;;;;;;;15.54;100.00;97610.41;4236465;27;20100;-72
2022/09/14 03:47:22;;;;;;;6.30;4.90;;;;;;;15.57;100.00;97617.94;4235613;27;20043;-72
2022/09/14 03:49:22;;;;;;;6.72;4.95;;;;;;;15.53;100.00;97619.22;4235890;27;20310;-72
2022/09/14 03:51:23;;;;;;;7.22;5.25;;;;;;;15.51;100.00;97622.44;4236008;27;20440;-72
2022/09/14 03:53:23;;;;;;;8.70;5.70;;;;;;;15.51;100.00;97616.09;4236111;27;20043;-72
2022/09/14 03:55:23;;;;;;;9.35;5.15;;;;;;;15.52;100.00;97614.88;4240004;27;20213;-72
2022/09/14 03:57:24;;;;;;;5.38;4.78;;;;;;;15.51;100.00;97614.06;4240717;27;20039;-72
2022/09/14 03:59:24;;;;;;;8.05;5.38;;;;;;;15.51;100.00;97616.09;4238747;27;20586;-72
2022/09/14 04:01:25;;;;;;;8.75;5.55;;;;;;;15.55;100.00;97617.56;4240198;27;20049;-72
2022/09/14 04:03:25;;;;;;;7.38;5.38;;;;;;;15.54;100.00;97618.00;4240467;27;20069;-72
2022/09/14 04:05:25;;;;;;;6.10;5.50;;;;;;;15.55;100.00;97616.78;4240099;27;20079;-72
2022/09/14 04:07:26;;;;;;;6.20;4.82;;;;;;;15.52;100.00;97620.44;4239501;27;20051;-72
2022/09/14 04:09:26;;;;;;;6.43;5.55;;;;;;;15.50;100.00;97615.31;4235039;27;20055;-72
2022/09/14 04:11:27;;;;;;;8.30;5.40;;;;;;;15.51;100.00;97611.28;4241220;27;20071;-72
2022/09/14 04:13:28;;;;;;;8.43;5.85;;;;;;;15.51;100.00;97608.50;4221550;28;20332;-72
2022/09/14 04:15:28;;;;;;;8.18;5.75;;;;;;;15.53;100.00;97608.06;4240735;27;20293;-73
2022/09/14 04:17:28;;;;;;;7.40;6.10;;;;;;;15.57;100.00;97604.00;4239648;27;20461;-72
2022/09/14 04:19:29;;;;;;;8.50;6.05;;;;;;;15.58;100.00;97602.00;4238757;27;20158;-73
2022/09/14 04:21:30;;;;;;;7.72;6.10;;;;;;;15.60;100.00;97594.75;4237271;27;20039;-73
2022/09/14 04:23:31;;;;;;;8.38;5.47;;;;;;;15.61;100.00;97596.34;4239782;27;20032;-73
2022/09/14 04:25:31;;;;;;;7.15;5.65;;;;;;;15.62;100.00;97600.72;4238629;27;20038;-73
2022/09/14 04:27:31;;;;;;;6.43;4.95;;;;;;;15.64;100.00;97598.28;4239565;27;20032;-73
2022/09/14 04:29:32;;;;;;;6.82;5.40;;;;;;;15.65;100.00;97596.28;4238065;27;20043;-73
2022/09/14 04:31:32;;;;;;;8.05;6.10;;;;;;;15.64;100.00;97589.94;4237228;27;20495;-73
2022/09/14 04:33:34;;;;;;;7.53;6.07;;;;;;;15.61;100.00;97596.34;4234540;27;20434;-73
2022/09/14 04:35:36;;;;;;;10.23;5.88;;;;;;;15.58;100.00;97599.97;4233656;27;20054;-73
2022/09/14 04:37:36;;;;;;;11.70;6.13;;;;;;;15.54;100.00;97607.63;4233440;27;20035;-73
2022/09/14 04:39:37;;;;;;;6.57;5.80;;;;;;;15.54;100.00;97598.47;4236345;27;20066;-74
2022/09/14 04:41:37;;;;;;;6.53;5.55;;;;;;;15.52;100.00;97598.13;4233556;27;20071;-74
2022/09/14 04:43:37;;;;;;;7.05;6.13;;;;;;;15.53;100.00;97597.69;4235361;27;20039;-74
2022/09/14 04:45:38;;;;;;;7.75;5.80;;;;;;;15.55;100.00;97598.03;4234927;27;20054;-74
2022/09/14 04:47:38;;;;;;;8.15;6.25;;;;;;;15.56;100.00;97599.63;4236902;27;20107;-74
2022/09/14 04:49:38;;;;;;;9.63;6.35;;;;;;;15.52;100.00;97606.50;4237344;27;20387;-74
2022/09/14 04:51:39;;;;;;;10.10;6.85;;;;;;;15.48;100.00;97600.22;4235252;27;20398;-74
2022/09/14 04:53:39;;;;;;;13.90;7.25;;;;;;;15.43;100.00;97609.88;4234735;27;20479;-74
2022/09/14 04:55:40;;;;;;;10.60;6.20;;;;;;;15.45;100.00;97607.44;4234271;27;20054;-74
2022/09/14 04:57:40;;;;;;;10.45;6.63;;;;;;;15.44;100.00;97606.66;4238937;27;20127;-74
2022/09/14 04:59:40;;;;;;;10.15;6.57;;;;;;;15.46;100.00;97607.00;4234919;27;20475;-74
2022/09/14 05:01:44;;;;;;;9.73;6.80;;;;;;;15.48;100.00;97605.81;4236704;27;20752;-74
2022/09/14 05:03:45;;;;;;;8.25;6.50;;;;;;;15.50;100.00;97615.31;4235119;27;20893;-74
2022/09/14 05:05:45;;;;;;;7.50;6.70;;;;;;;15.49;100.00;97605.38;4233304;27;20078;-74
2022/09/14 05:07:46;;;;;;;9.10;6.50;;;;;;;15.48;100.00;97605.81;4236304;27;20097;-74
2022/09/14 05:09:46;;;;;;;11.50;7.18;;;;;;;15.50;100.00;97608.94;4238111;27;20488;-74
2022/09/14 05:11:49;;;;;;;7.85;6.82;;;;;;;15.47;100.00;97610.56;4238247;27;20043;-74
2022/09/14 05:13:49;;;;;;;;;;;;;;;15.50;100.00;97603.38;4239408;27;20047;-74
2022/09/14 05:15:50;;;;;;;9.80;6.68;;;;;;;15.46;100.00;97604.22;4239340;27;20028;-74
2022/09/14 05:17:51;;;;;;;8.38;5.80;;;;;;;15.51;100.00;97602.16;4238869;27;20039;-74
2022/09/14 05:19:51;;;;;;;11.00;6.85;;;;;;;15.50;100.00;97601.34;4237292;27;20550;-74
2022/09/14 05:21:51;;;;;;;7.70;6.28;;;;;;;15.54;100.00;97610.41;4239150;27;20306;-74
2022/09/14 05:23:57;;;;;;;8.10;6.45;;;;;;;15.52;100.00;97603.72;4238095;27;20036;-74
2022/09/14 05:25:59;;;;;;;11.52;7.10;;;;;;;15.52;100.00;97607.28;4238205;27;20047;-74
2022/09/14 05:27:59;;;;;;;8.35;6.15;;;;;;;15.53;100.00;97605.28;4237852;27;20505;-74
2022/09/14 05:29:59;;;;;;;8.48;5.50;;;;;;;15.53;100.00;97606.06;4237244;27;20051;-74
2022/09/14 05:32:00;;;;;;;8.32;6.45;;;;;;;15.59;100.00;97607.13;4238640;27;20069;-74
2022/09/14 05:34:00;;;;;;;8.88;7.07;;;;;;;15.60;100.00;97600.34;4238410;27;20077;-74
2022/09/14 05:36:06;;;;;;;14.38;7.68;;;;;;;15.58;100.00;97599.97;4128568;27;20234;-74
2022/09/14 05:38:06;;;;;;;9.75;7.07;;;;;;;15.60;100.00;97600.34;4236391;27;20019;-73
2022/09/14 05:40:07;;;;;;;7.38;6.20;;;;;;;15.57;100.00;97598.41;4237357;27;20035;-74
2022/09/14 05:42:08;;;;;;;10.20;7.00;;;;;;;15.55;100.00;97597.25;4238362;27;20035;-74
2022/09/14 05:44:08;;;;;;;14.98;8.85;;;;;;;15.54;100.00;97599.25;4237753;27;20079;-74
2022/09/14 05:46:14;;;;;;;14.40;7.18;;;;;;;15.53;100.00;97602.50;4236644;27;20114;-74
2022/09/14 05:48:15;;;;;;;9.32;7.20;;;;;;;15.57;100.00;97603.22;4237737;27;20066;-74
2022/09/14 05:50:15;;;;;;;7.20;5.72;;;;;;;15.57;100.00;97597.63;4238426;27;20394;-74
2022/09/14 05:52:16;;;;;;;10.75;7.07;;;;;;;15.55;100.00;97595.25;4237078;27;20051;-74
2022/09/14 05:54:16;;;;;;;9.88;6.45;;;;;;;15.58;100.00;97593.63;4236789;27;20051;-74
2022/09/14 05:56:18;;;;;;;9.55;7.40;;;;;;;15.58;100.00;97596.41;4236828;27;20023;-74
2022/09/14 05:58:18;;;;;;;11.93;7.28;;;;;;;15.55;100.00;97583.31;4237572;27;20023;-74
2022/09/14 06:00:20;;;;;;;9.40;6.68;;;;;;;15.60;100.00;97588.41;4237748;27;20018;-74
2022/09/14 06:02:20;;;;;;;10.38;7.32;;;;;;;15.59;100.00;97584.03;4234158;27;20031;-74
2022/09/14 06:04:21;;;;;;;9.15;6.78;;;;;;;15.60;100.00;97583.59;4236239;27;20053;-74
2022/09/14 06:06:22;;;;;;;10.73;7.30;;;;;;;15.65;100.00;97583.13;4237926;27;20113;-74
2022/09/14 06:08:22;;;;;;;8.38;6.72;;;;;;;15.67;100.00;97580.69;4235092;27;20067;-74
2022/09/14 06:10:22;;;;;;;8.43;6.97;;;;;;;15.68;100.00;97573.88;4236261;27;20092;-74
2022/09/14 06:12:25;;;;;;;9.57;7.07;;;;;;;15.68;100.00;97576.69;4218835;28;20534;-74
2022/09/14 06:14:26;;;;;;;9.70;6.97;;;;;;;15.71;100.00;97577.81;4237237;27;20067;-74
2022/09/14 06:16:27;;;;;;;9.45;7.32;;;;;;;15.71;100.00;97567.44;4218130;28;20590;-74
2022/09/14 06:18:30;;;;;;;10.18;7.72;;;;;;;15.72;100.00;97573.78;4235775;27;20462;-74
2022/09/14 06:20:30;;;;;;;10.77;7.47;;;;;;;15.73;100.00;97561.44;4237562;27;20096;-74
2022/09/14 06:22:31;;;;;;;9.63;7.45;;;;;;;15.73;100.00;97558.66;4237583;27;20043;-74
2022/09/14 06:24:32;;;;;;;8.93;7.32;;;;;;;15.76;100.00;97565.34;4237442;27;20032;-74
2022/09/14 06:26:32;;;;;;;9.50;7.97;;;;;;;15.75;100.00;97561.78;4237503;27;20804;-74
2022/09/14 06:28:33;;;;;;;12.30;8.35;;;;;;;15.73;100.00;97556.66;4237379;27;20043;-74
2022/09/14 06:30:34;;;;;;;11.75;7.65;;;;;;;15.72;100.00;97559.84;4236679;27;20158;-74
2022/09/14 06:32:34;;;;;;;12.57;8.30;;;;;;;15.75;100.00;97556.22;4237136;27;20118;-74
2022/09/14 06:34:34;;;;;;;10.13;7.60;;;;;;;15.73;100.00;97553.84;4237765;27;20046;-74
2022/09/14 06:36:35;;;;;;;8.25;7.22;;;;;;;15.78;100.00;97557.34;4237051;27;20089;-74
2022/09/14 06:38:35;;;;;;;9.38;7.47;;;;;;;15.82;100.00;97561.63;4236101;27;20047;-74
2022/09/14 06:40:36;;;;;;;8.90;7.38;;;;;;;15.80;100.00;97547.31;4237965;27;20367;-74
2022/09/14 06:42:36;;;;;;;10.02;7.55;;;;;;;15.81;100.00;97560.06;4237036;27;20639;-74
2022/09/14 06:44:36;;;;;;;7.30;6.05;;;;;;;15.78;100.00;97555.31;4236925;27;20079;-74
2022/09/14 06:46:37;;;;;;;9.85;6.45;;;;;;;15.80;100.00;97554.88;4236273;27;20467;-74
2022/09/14 06:48:44;;;;;;;8.30;6.78;;;;;;;15.81;100.00;97551.69;4236915;27;20039;-74
2022/09/14 06:50:44;;;;;;;9.20;6.38;;;;;;;15.83;100.00;97565.19;4238532;27;20055;-73
2022/09/14 06:52:44;;;;;;;8.18;7.05;;;;;;;15.78;100.00;97543.38;4236399;27;20053;-74
2022/09/14 06:54:45;;;;;;;8.43;6.60;;;;;;;15.79;100.00;97550.53;4236624;27;20075;-74
2022/09/14 06:56:46;;;;;;;7.72;6.03;;;;;;;15.80;100.00;97561.25;4237257;27;20415;-74
2022/09/14 06:58:46;;;;;;;9.07;6.85;;;;;;;15.86;100.00;97561.53;4236314;27;20044;-74
2022/09/14 07:00:47;;;;;;;9.85;6.90;;;;;;;15.87;100.00;97557.50;4234630;27;20047;-74
2022/09/14 07:02:47;;;;;;;9.52;7.20;;;;;;;15.88;100.00;97561.88;4236722;27;20051;-74
2022/09/14 07:04:47;;;;;;;8.80;6.50;;;;;;;15.89;100.00;97555.09;4236308;27;20463;-74
2022/09/14 07:06:49;;;;;;;9.48;7.30;;;;;;;15.86;100.00;97559.50;4236451;27;20162;-74
2022/09/14 07:08:51;;;;;;;9.55;7.38;;;;;;;15.88;100.00;97553.50;4236275;27;20448;-74
2022/09/14 07:10:56;;;;;;;10.07;6.95;;;;;;;15.88;100.00;97561.88;4236618;27;20055;-74
2022/09/14 07:12:59;;;;;;;8.95;6.88;;;;;;;15.90;100.00;97557.44;4236238;27;20073;-74
2022/09/14 07:15:00;;;;;;;11.07;7.57;;;;;;;15.89;100.00;97561.44;4236493;27;20162;-74
2022/09/14 07:17:00;;;;;;;9.32;7.45;;;;;;;15.90;100.00;97562.22;4235892;27;20063;-73
2022/09/14 07:19:03;;;;;;;7.40;6.57;;;;;;;15.89;100.00;97566.25;4236136;27;20047;-74
2022/09/14 07:21:12;;;;;;;8.68;7.47;;;;;;;15.89;100.00;97564.25;4236816;27;20039;-74
2022/09/14 07:23:12;;;;;;;9.18;6.95;;;;;;;15.88;100.00;97564.66;4236635;27;20043;-74
2022/09/14 07:25:12;;;;;;;10.50;7.50;;;;;;;15.89;100.00;97566.25;4235752;27;20405;-74
2022/09/14 07:27:13;;;;;;;8.93;6.43;;;;;;;15.90;100.00;97571.38;4236206;27;20043;-74
2022/09/14 07:29:18;;;;;;;9.27;7.25;;;;;;;15.89;100.00;97572.59;4235351;27;20046;-74
2022/09/14 07:31:30;;;;;;;9.20;7.00;;;;;;;15.90;100.00;97563.03;4235173;27;20051;-74
2022/09/14 07:33:31;;;;;;;8.60;6.70;;;;;;;15.92;100.00;97565.38;4235899;27;20059;-74
2022/09/14 07:35:32;;;;;;;7.28;6.32;;;;;;;15.91;100.00;97570.16;4236486;27;20046;-74
2022/09/14 07:37:32;;;;;;;9.23;7.10;;;;;;;15.94;100.00;97565.72;4235829;27;20043;-74
2022/09/14 07:39:32;;;;;;;7.57;6.53;;;;;;;15.94;100.00;97560.91;4235977;27;20081;-74
2022/09/14 07:41:34;;;;;;;7.30;6.50;;;;;;;15.96;100.00;97566.03;4234194;27;20565;-74
2022/09/14 07:43:34;;;;;;;9.57;7.18;;;;;;;15.95;100.00;97559.69;4234117;27;20058;-74
2022/09/14 07:45:36;;;;;;;12.75;10.70;;;;;;;15.94;100.00;97569.28;4235888;27;20526;-74
2022/09/14 07:47:37;;;;;;;11.98;9.18;;;;;;;15.96;100.00;97569.63;4233728;27;20082;-74
2022/09/14 07:49:37;;;;;;;10.18;9.07;;;;;;;15.95;100.00;97567.28;4235088;27;20075;-74
2022/09/14 07:51:38;;;;;;;10.73;8.10;;;;;;;15.93;100.00;97564.13;4236134;28;20062;-74
2022/09/14 07:53:44;;;;;;;9.70;7.18;;;;;;;15.97;100.00;97565.63;4235899;27;20043;-74
2022/09/14 07:55:45;;;;;;;10.25;7.70;;;;;;;15.97;100.00;97565.63;4236697;27;20068;-74
2022/09/14 07:57:45;;;;;;;8.45;6.53;;;;;;;15.98;100.00;97566.41;4235713;27;20055;-74
2022/09/14 07:59:46;;;;;;;9.63;7.40;;;;;;;15.99;100.00;97563.19;4234570;27;20147;-74
2022/09/14 08:01:48;;;;;;;7.15;6.13;;;;;;;16.01;100.00;97560.75;4236266;27;20329;-74
2022/09/14 08:03:48;;;;;;;9.43;7.22;;;;;;;16.00;100.00;97561.19;4236860;27;20321;-74
2022/09/14 08:05:49;;;;;;;8.60;6.53;;;;;;;16.03;100.00;97554.72;4235900;27;20039;-74
2022/09/14 08:07:54;;;;;;;8.15;6.68;;;;;;;16.06;100.00;97562.22;4236424;27;20380;-74
2022/09/14 08:09:55;;;;;;;8.98;6.70;;;;;;;16.12;100.00;97556.88;4235868;27;20099;-74
2022/09/14 08:11:56;;;;;;;8.80;6.80;;;;;;;16.13;100.00;97556.44;4236448;27;20035;-74
2022/09/14 08:14:02;;;;;;;9.70;6.82;;;;;;;16.15;100.00;97551.22;4236000;27;20674;-74
2022/09/14 08:16:03;;;;;;;10.77;7.45;;;;;;;16.17;100.00;97557.16;4236168;27;20043;-74
2022/09/14 08:18:04;;;;;;;7.50;6.07;;;;;;;16.18;100.00;97553.13;4237616;27;20031;-74
2022/09/14 08:20:05;;;;;;;8.95;6.88;;;;;;;16.20;100.00;97561.84;4235831;27;20425;-74
2022/09/14 08:22:05;;;;;;;9.15;6.75;;;;;;;16.24;100.00;97556.19;4236858;27;20093;-74
2022/09/14 08:24:06;;;;;;;9.20;6.85;;;;;;;16.25;100.00;97554.97;4236030;28;20031;-74
2022/09/14 08:26:21;;;;;;;9.18;6.57;;;;;;;16.26;100.00;97551.72;4235760;27;20051;-74
2022/09/14 08:28:21;;;;;;;8.50;6.78;;;;;;;16.25;100.00;97552.97;4234738;27;20112;-74
2022/09/14 08:30:21;;;;;;;8.18;6.63;;;;;;;16.25;100.00;97552.97;4235340;27;20085;-74
2022/09/14 08:32:21;;;;;;;8.55;6.63;;;;;;;16.25;100.00;97550.16;4236228;27;20043;-74
2022/09/14 08:34:22;;;;;;;8.00;7.10;;;;;;;16.27;100.00;97550.50;4235949;27;20038;-75
2022/09/14 08:36:24;;;;;;;8.82;7.88;;;;;;;16.20;100.00;97547.13;4217727;28;20039;-74
2022/09/14 08:38:25;;;;;;;8.05;7.25;;;;;;;16.16;100.00;97555.59;4235085;28;20128;-75
2022/09/14 08:40:25;;;;;;;8.93;7.80;;;;;;;16.11;100.00;97547.75;4237496;27;20039;-74
2022/09/14 08:42:25;;;;;;;8.38;7.07;;;;;;;16.08;100.00;97548.63;4238427;27;20427;-74
2022/09/14 08:44:30;;;;;;;8.65;7.07;;;;;;;16.05;100.00;97552.25;4240276;27;20118;-74
2022/09/14 08:46:34;;;;;;;7.72;6.78;;;;;;;16.05;100.00;97552.25;4239082;27;20069;-75
2022/09/14 08:48:40;;;;;;;7.22;6.25;;;;;;;16.02;100.00;97548.34;4238002;27;20039;-74
2022/09/14 08:50:40;;;;;;;7.07;6.32;;;;;;;16.01;100.00;97554.38;4238936;27;20047;-74
2022/09/14 08:52:52;;;;;;;7.82;5.93;;;;;;;16.02;100.00;97553.94;4238698;27;20562;-74
2022/09/14 08:54:55;;;;;;;8.73;6.00;;;;;;;15.96;100.00;97546.53;4238942;27;20467;-74
2022/09/14 08:57:24;;;;;;;7.28;5.93;;;;;;;15.93;100.00;97553.75;4238784;27;20140;-74
2022/09/14 08:59:49;;;;;;;6.00;5.40;;;;;;;15.91;100.00;97541.47;4237884;27;20463;-74
2022/09/14 09:02:19;;;;;;;6.18;5.57;;;;;;;15.85;100.00;97543.22;4237223;27;20233;-75
2022/09/14 09:04:26;;;;;;;7.45;5.63;;;;;;;15.80;100.00;97549.31;4239768;27;20096;-74
2022/09/14 09:06:45;;;;;;;6.30;5.15;;;;;;;15.75;100.00;97539.47;4238935;27;20379;-74
2022/09/14 09:09:04;;;;;;;5.93;5.32;;;;;;;15.74;100.00;97549.06;4237495;27;20078;-75
2022/09/14 09:11:13;;;;;;;7.15;5.13;;;;;;;15.69;100.00;97539.19;4237988;27;20115;-75
2022/09/14 09:13:18;;;;;;;7.88;6.05;;;;;;;15.57;100.00;97542.66;4239062;27;20054;-74
2022/09/14 09:15:24;;;;;;;7.78;6.50;;;;;;;15.52;100.00;97543.16;4238922;27;20383;-75
2022/09/14 09:17:39;;;;;;;7.45;6.30;;;;;;;15.51;100.00;97554.75;4237930;27;20150;-74
2022/09/14 09:20:07;;;;;;;8.27;6.80;;;;;;;15.47;100.00;97554.81;4236988;27;20039;-75
2022/09/14 09:22:13;;;;;;;8.75;7.05;;;;;;;15.46;100.00;97545.66;4237916;27;20039;-75
2022/09/14 09:24:27;;;;;;;8.18;7.32;;;;;;;15.43;100.00;97546.56;4237658;27;20490;-75
2022/09/14 09:26:29;;;;;;;8.60;7.70;;;;;;;15.41;100.00;97542.63;4237104;27;20552;-74
2022/09/14 09:28:31;;;;;;;10.43;7.47;;;;;;;15.36;100.00;97545.94;4237097;27;20070;-74
2022/09/14 09:30:31;;;;;;;11.75;7.13;;;;;;;15.35;100.00;97541.56;4238172;27;20073;-75
2022/09/14 09:32:34;;;;;;;9.30;7.07;;;;;;;15.34;100.00;97543.56;4239834;27;20074;-74
2022/09/14 09:34:35;;;;;;;11.38;7.75;;;;;;;15.25;100.00;97540.59;4237368;27;20054;-74
2022/09/14 09:36:40;;;;;;;8.30;7.03;;;;;;;15.25;100.00;97540.59;4238309;27;20031;-74